首页
METAR-TAF:

METAR-TAF

机场 :

Fort Lauderdale Executive Airport

劳德代尔堡, 佛罗里达州, 美国

纬度: 26-12-00N, 经度: 080-11-00W, 海拔: 4米

当前天气观测

该预报发布于17分钟前的20:53 UTC
风速13节,风向
温度 28°C
湿度 55%
气压 1018 hPa
能見度: 16.1公里
少量云层高于3100英尺

METAR: KFXE 282053Z AUTO 10013KT 10SM FEW031 28/18 A3005 RMK AO2 SLP177 T02780183 56015

时间: 17:10 (21:10 UTC)

预报

该预报发布于17分钟前的20:53 UTC
预报有效从28日的 21点(UTC)到 29日的 18点(UTC)
风速13节,风向东南
能見度: 10公里
散云层高于3000英尺
从 29日的 0200点(UTC)
风速5节,风向东南
能見度: 10公里
散云层高于3000英尺
从 29日的 1400点(UTC)
风速11节,风向东南
能見度: 10公里
散云层高于2500英尺
散云层高于3500英尺

TAF: KFXE 282053Z 2821/2918 13013KT P6SM SCT030 FM290200 13005KT P6SM SCT030 FM291400 14011KT P6SM SCT025 SCT035

超过4000个机场的气象观测和天气预报(METAR&TAF报告)。

可查询的气象台以黄色和红色小点在地图上表示。

将鼠标移到小点上方,可查看气象台名称。

然后点击查看天气观测和预报。

如需切换地图:点击带黑十字的绿色按钮放大地图;点击带横线的绿色按钮缩小地图;或者点击绿色箭头查看邻近地区的地图。


METAR-TAF: